createdAt,value
2023-05-19T00:00:16.825Z,1013.10
2023-05-19T00:01:16.866Z,1013.15
2023-05-19T00:02:16.907Z,1013.12
2023-05-19T00:03:16.938Z,1013.11
2023-05-19T00:04:16.822Z,1013.14
2023-05-19T00:05:16.773Z,1013.15
2023-05-19T00:06:16.920Z,1013.12
2023-05-19T00:07:16.740Z,1013.06
2023-05-19T00:08:16.777Z,1013.04
2023-05-19T00:09:16.760Z,1013.03
2023-05-19T00:10:16.707Z,1013.08
2023-05-19T00:11:16.734Z,1013.09
2023-05-19T00:12:16.682Z,1013.07
2023-05-19T00:13:16.709Z,1013.09
2023-05-19T00:14:16.682Z,1013.06
2023-05-19T00:15:16.637Z,1013.02
2023-05-19T00:16:16.695Z,1013.02
2023-05-19T00:17:16.651Z,1013.03
2023-05-19T00:18:16.662Z,1013.07
2023-05-19T00:19:16.688Z,1012.99
2023-05-19T00:20:16.586Z,1012.99
2023-05-19T00:21:16.606Z,1013.07
2023-05-19T00:22:16.583Z,1013.02
2023-05-19T00:23:16.557Z,1013.06
2023-05-19T00:24:18.218Z,1013.04
2023-05-19T00:25:16.568Z,1013.06
2023-05-19T00:26:16.546Z,1013.07
2023-05-19T00:27:16.552Z,1013.09
2023-05-19T00:28:16.488Z,1013.10
2023-05-19T00:29:16.510Z,1013.06
2023-05-19T00:30:16.675Z,1013.05
2023-05-19T00:31:16.544Z,1013.07
2023-05-19T00:32:16.506Z,1013.11
2023-05-19T00:33:16.463Z,1013.06
2023-05-19T00:34:16.447Z,1013.07
2023-05-19T00:35:16.428Z,1013.06
2023-05-19T00:36:16.399Z,1013.07
2023-05-19T00:37:16.425Z,1013.02
2023-05-19T00:38:16.394Z,1013.09
2023-05-19T00:39:16.396Z,1013.05
2023-05-19T00:40:16.368Z,1013.08
2023-05-19T00:41:16.361Z,1013.07
2023-05-19T00:42:16.319Z,1013.08
2023-05-19T00:43:16.345Z,1013.05
2023-05-19T00:44:16.365Z,1013.06
2023-05-19T00:45:16.324Z,1013.04
2023-05-19T00:46:16.283Z,1013.04
2023-05-19T00:47:16.343Z,1013.04
2023-05-19T00:48:16.289Z,1013.01
2023-05-19T00:49:16.282Z,1013.07
2023-05-19T00:50:16.253Z,1013.04
2023-05-19T00:51:16.245Z,1013.11
2023-05-19T00:52:16.231Z,1013.10
2023-05-19T00:53:16.247Z,1013.07
2023-05-19T00:54:16.178Z,1013.07
2023-05-19T00:55:16.203Z,1013.04
2023-05-19T00:56:16.152Z,1013.03
2023-05-19T00:57:16.202Z,1013.04
2023-05-19T00:58:16.157Z,1013.05
2023-05-19T00:59:16.157Z,1013.05
2023-05-19T01:00:16.146Z,1013.06
2023-05-19T01:01:16.158Z,1013.02
2023-05-19T01:02:16.135Z,1013.09
2023-05-19T01:03:16.212Z,1013.06
2023-05-19T01:04:16.082Z,1013.06
2023-05-19T01:05:16.102Z,1013.08
2023-05-19T01:06:16.034Z,1013.08
2023-05-19T01:07:16.110Z,1013.11
2023-05-19T01:08:16.017Z,1013.03
2023-05-19T01:09:16.047Z,1013.06
2023-05-19T01:10:16.018Z,1013.08
2023-05-19T01:11:16.019Z,1013.13
2023-05-19T01:12:15.997Z,1013.13
2023-05-19T01:13:15.996Z,1013.08
2023-05-19T01:14:15.943Z,1013.03
2023-05-19T01:15:15.990Z,1013.07
2023-05-19T01:16:15.946Z,1013.05
2023-05-19T01:17:15.944Z,1013.03
2023-05-19T01:18:15.952Z,1013.10
2023-05-19T01:19:15.983Z,1013.05
2023-05-19T01:20:15.898Z,1013.00
2023-05-19T01:21:15.905Z,1013.03
2023-05-19T01:22:15.870Z,1013.03
2023-05-19T01:23:15.894Z,1013.08
2023-05-19T01:24:15.850Z,1013.03
2023-05-19T01:25:15.867Z,1013.04
2023-05-19T01:26:15.804Z,1012.99
2023-05-19T01:27:15.848Z,1013.04
2023-05-19T01:28:15.843Z,1013.03
2023-05-19T01:29:15.803Z,1013.06
2023-05-19T01:30:15.754Z,1013.01
2023-05-19T01:31:15.789Z,1013.02
2023-05-19T01:32:15.931Z,1013.02
2023-05-19T01:33:15.738Z,1013.00
2023-05-19T01:34:15.762Z,1012.97
2023-05-19T01:35:15.712Z,1013.00
2023-05-19T01:36:15.712Z,1013.00
2023-05-19T01:37:15.709Z,1012.97
2023-05-19T01:38:15.686Z,1013.02
2023-05-19T01:39:15.717Z,1012.98
2023-05-19T01:40:15.632Z,1012.98
2023-05-19T01:41:15.652Z,1013.01
2023-05-19T01:42:15.641Z,1012.98
2023-05-19T01:43:15.612Z,1012.94
2023-05-19T01:44:15.589Z,1013.00
2023-05-19T01:45:15.619Z,1012.97
2023-05-19T01:46:15.671Z,1012.94
2023-05-19T01:47:15.597Z,1012.94
2023-05-19T01:48:15.588Z,1012.97
2023-05-19T01:49:15.580Z,1012.96
2023-05-19T01:50:15.576Z,1012.96
2023-05-19T01:51:15.523Z,1012.97
2023-05-19T01:52:15.563Z,1012.96
2023-05-19T01:53:15.525Z,1012.95
2023-05-19T01:54:15.484Z,1012.99
2023-05-19T01:55:15.478Z,1012.96
2023-05-19T01:56:15.451Z,1012.96
2023-05-19T01:57:15.498Z,1012.99
2023-05-19T01:58:15.457Z,1012.97
2023-05-19T01:59:15.438Z,1012.97
2023-05-19T02:00:15.407Z,1012.99
2023-05-19T02:01:15.481Z,1013.03
2023-05-19T02:02:15.434Z,1013.00
2023-05-19T02:03:15.423Z,1013.01
2023-05-19T02:04:15.506Z,1013.04
2023-05-19T02:05:15.393Z,1013.05
2023-05-19T02:06:15.359Z,1013.01
2023-05-19T02:07:15.366Z,1013.06
2023-05-19T02:08:15.329Z,1013.03
2023-05-19T02:09:15.310Z,1013.08
2023-05-19T02:10:15.370Z,1013.10
2023-05-19T02:11:15.289Z,1013.13
2023-05-19T02:12:15.285Z,1013.14
2023-05-19T02:13:15.263Z,1013.13
2023-05-19T02:14:15.266Z,1013.11
2023-05-19T02:15:15.268Z,1013.18
2023-05-19T02:16:15.311Z,1013.17
2023-05-19T02:17:15.252Z,1013.15
2023-05-19T02:18:15.186Z,1013.16
2023-05-19T02:19:15.239Z,1013.11
2023-05-19T02:20:15.159Z,1013.10
2023-05-19T02:21:15.198Z,1013.13
2023-05-19T02:22:15.232Z,1013.09
2023-05-19T02:23:15.138Z,1013.12
2023-05-19T02:24:15.137Z,1013.09
2023-05-19T02:25:15.131Z,1013.08
2023-05-19T02:26:15.135Z,1013.11
2023-05-19T02:27:15.097Z,1013.09
2023-05-19T02:28:15.089Z,1013.11
2023-05-19T02:29:15.099Z,1013.10
2023-05-19T02:30:15.077Z,1013.17
2023-05-19T02:31:15.050Z,1013.10
2023-05-19T02:32:15.166Z,1013.14
2023-05-19T02:33:15.068Z,1013.12
2023-05-19T02:34:15.021Z,1013.13
2023-05-19T02:35:15.051Z,1013.11
2023-05-19T02:36:15.005Z,1013.13
2023-05-19T02:37:15.012Z,1013.11
2023-05-19T02:38:15.059Z,1013.13
2023-05-19T02:39:14.975Z,1013.09
2023-05-19T02:40:14.961Z,1013.09
2023-05-19T02:41:14.932Z,1013.07
2023-05-19T02:42:14.922Z,1013.05
2023-05-19T02:43:14.927Z,1013.05
2023-05-19T02:44:14.902Z,1013.06
2023-05-19T02:45:14.878Z,1013.09
2023-05-19T02:46:14.896Z,1013.05
2023-05-19T02:47:14.870Z,1013.06
2023-05-19T02:48:14.888Z,1013.06
2023-05-19T02:49:14.852Z,1013.06
2023-05-19T02:50:14.842Z,1013.04
2023-05-19T02:51:14.810Z,1013.01
2023-05-19T02:52:14.807Z,1013.07
2023-05-19T02:53:14.891Z,1013.02
2023-05-19T02:54:14.796Z,1013.02
2023-05-19T02:55:14.799Z,1013.01
2023-05-19T02:56:14.734Z,1013.03
2023-05-19T02:57:14.762Z,1013.01
2023-05-19T02:58:14.721Z,1013.00
2023-05-19T02:59:14.824Z,1012.98
2023-05-19T03:00:14.722Z,1012.98
2023-05-19T03:01:14.733Z,1012.94
2023-05-19T03:02:14.752Z,1012.92
2023-05-19T03:03:14.929Z,1012.96
2023-05-19T03:04:14.669Z,1012.89
2023-05-19T03:05:14.705Z,1012.91
2023-05-19T03:06:14.643Z,1012.88
2023-05-19T03:07:14.651Z,1012.89
2023-05-19T03:08:14.602Z,1012.93
2023-05-19T03:09:14.602Z,1012.91
2023-05-19T03:10:14.608Z,1012.90
2023-05-19T03:11:14.608Z,1012.87
2023-05-19T03:12:14.578Z,1012.90
2023-05-19T03:13:14.590Z,1012.86
2023-05-19T03:14:14.538Z,1012.85
2023-05-19T03:15:14.545Z,1012.90
2023-05-19T03:16:14.538Z,1012.90
2023-05-19T03:17:14.531Z,1012.86
2023-05-19T03:18:14.612Z,1012.88
2023-05-19T03:19:14.570Z,1012.89
2023-05-19T03:20:14.469Z,1012.93
2023-05-19T03:21:14.473Z,1012.97
2023-05-19T03:22:14.437Z,1012.93
2023-05-19T03:23:22.128Z,1012.94
2023-05-19T03:24:14.403Z,1013.03
2023-05-19T03:25:14.413Z,1013.00
2023-05-19T03:26:14.419Z,1013.03
2023-05-19T03:27:14.409Z,1013.00
2023-05-19T03:28:20.601Z,1012.98
2023-05-19T03:29:14.357Z,1013.00
2023-05-19T03:30:14.372Z,1013.02
2023-05-19T03:31:14.370Z,1013.07
2023-05-19T03:32:14.406Z,1013.06
2023-05-19T03:33:14.603Z,1013.06
2023-05-19T03:34:14.287Z,1013.05
2023-05-19T03:35:14.306Z,1013.10
2023-05-19T03:36:14.263Z,1013.10
2023-05-19T03:37:14.293Z,1013.08
2023-05-19T03:38:14.260Z,1013.11
2023-05-19T03:39:14.250Z,1013.11
2023-05-19T03:40:14.277Z,1013.10
2023-05-19T03:41:14.277Z,1013.11
2023-05-19T03:42:14.217Z,1013.07
2023-05-19T03:43:14.246Z,1013.08
2023-05-19T03:44:14.224Z,1013.07
2023-05-19T03:45:14.908Z,1013.07
2023-05-19T03:46:14.213Z,1013.09
2023-05-19T03:47:14.149Z,1013.10
2023-05-19T03:48:14.158Z,1013.07
2023-05-19T03:49:14.152Z,1013.09
2023-05-19T03:50:14.128Z,1013.09
2023-05-19T03:51:14.139Z,1013.06
2023-05-19T03:52:14.082Z,1013.08
2023-05-19T03:53:14.128Z,1013.08
2023-05-19T03:54:14.077Z,1013.08
2023-05-19T03:55:14.103Z,1013.04
2023-05-19T03:56:14.156Z,1013.06
2023-05-19T03:57:14.064Z,1013.03
2023-05-19T03:58:14.005Z,1013.02
2023-05-19T03:59:14.069Z,1013.01
2023-05-19T04:00:13.984Z,1013.01
2023-05-19T04:01:14.007Z,1013.05
2023-05-19T04:02:14.030Z,1013.03
2023-05-19T04:03:14.171Z,1013.00
2023-05-19T04:04:14.008Z,1013.01
2023-05-19T04:05:13.949Z,1013.03
2023-05-19T04:06:13.946Z,1013.01
2023-05-19T04:07:13.912Z,1013.01
2023-05-19T04:08:13.897Z,1013.06
2023-05-19T04:09:13.894Z,1013.05
2023-05-19T04:10:13.907Z,1013.02
2023-05-19T04:11:13.921Z,1013.08
2023-05-19T04:12:13.847Z,1013.05
2023-05-19T04:13:13.848Z,1013.04
2023-05-19T04:14:13.844Z,1013.09
2023-05-19T04:15:13.862Z,1013.03
2023-05-19T04:16:13.837Z,1013.07
2023-05-19T04:17:13.819Z,1013.10
2023-05-19T04:18:13.834Z,1013.13
2023-05-19T04:19:13.819Z,1013.10
2023-05-19T04:20:13.747Z,1013.09
2023-05-19T04:21:13.800Z,1013.11
2023-05-19T04:22:13.721Z,1013.09
2023-05-19T04:23:13.755Z,1013.12
2023-05-19T04:24:13.730Z,1013.13
2023-05-19T04:25:13.731Z,1013.09
2023-05-19T04:26:13.705Z,1013.10
2023-05-19T04:27:13.724Z,1013.10
2023-05-19T04:28:13.664Z,1013.10
2023-05-19T04:29:13.709Z,1013.10
2023-05-19T04:30:13.666Z,1013.10
2023-05-19T04:31:13.639Z,1013.06
2023-05-19T04:32:13.644Z,1013.08
2023-05-19T04:33:13.645Z,1013.08
2023-05-19T04:34:13.597Z,1013.08
2023-05-19T04:35:13.608Z,1013.07
2023-05-19T04:36:13.605Z,1013.06
2023-05-19T04:37:13.619Z,1013.06
2023-05-19T04:38:13.587Z,1013.06
2023-05-19T04:39:13.568Z,1013.06
2023-05-19T04:40:13.590Z,1013.04
2023-05-19T04:41:13.544Z,1013.07
2023-05-19T04:42:13.532Z,1013.03
2023-05-19T04:43:13.509Z,1013.10
2023-05-19T04:44:13.488Z,1013.04
2023-05-19T04:45:13.490Z,1013.06
2023-05-19T04:46:14.112Z,1013.04
2023-05-19T04:47:13.503Z,1013.05
2023-05-19T04:48:13.440Z,1013.07
2023-05-19T04:49:13.469Z,1013.09
2023-05-19T04:50:13.442Z,1013.12
2023-05-19T04:51:13.421Z,1013.11
2023-05-19T04:52:13.541Z,1013.15
2023-05-19T04:53:13.394Z,1013.14
2023-05-19T04:54:13.363Z,1013.21
2023-05-19T04:55:13.497Z,1013.11
2023-05-19T04:56:13.350Z,1013.18
2023-05-19T04:57:13.316Z,1013.13
2023-05-19T04:58:13.379Z,1013.13
2023-05-19T04:59:13.296Z,1013.12
2023-05-19T05:00:13.326Z,1013.18
2023-05-19T05:01:13.297Z,1013.11
2023-05-19T05:02:13.386Z,1013.15
2023-05-19T05:03:13.444Z,1013.15
2023-05-19T05:04:13.449Z,1013.15
2023-05-19T05:05:13.228Z,1013.21
2023-05-19T05:06:13.248Z,1013.21
2023-05-19T05:07:13.279Z,1013.22
2023-05-19T05:08:13.207Z,1013.22
2023-05-19T05:09:13.188Z,1013.23
2023-05-19T05:10:13.208Z,1013.23
2023-05-19T05:11:13.187Z,1013.21
2023-05-19T05:12:13.173Z,1013.25
2023-05-19T05:13:13.189Z,1013.24
2023-05-19T05:14:13.150Z,1013.25
2023-05-19T05:15:13.117Z,1013.24
2023-05-19T05:16:13.190Z,1013.26
2023-05-19T05:17:13.171Z,1013.25
2023-05-19T05:18:13.080Z,1013.25
2023-05-19T05:19:13.135Z,1013.25
2023-05-19T05:20:13.095Z,1013.29
2023-05-19T05:21:13.093Z,1013.25
2023-05-19T05:22:13.034Z,1013.24
2023-05-19T05:23:13.046Z,1013.22
2023-05-19T05:24:13.075Z,1013.20
2023-05-19T05:25:12.990Z,1013.27
2023-05-19T05:26:13.012Z,1013.29
2023-05-19T05:27:12.987Z,1013.27
2023-05-19T05:28:12.960Z,1013.20
2023-05-19T05:29:12.962Z,1013.19
2023-05-19T05:30:14.680Z,1013.19
2023-05-19T05:31:12.962Z,1013.19
2023-05-19T05:32:12.960Z,1013.20
2023-05-19T05:33:13.196Z,1013.17
2023-05-19T05:34:12.902Z,1013.17
2023-05-19T05:35:12.902Z,1013.08
2023-05-19T05:36:12.882Z,1013.11
2023-05-19T05:37:13.896Z,1013.13
2023-05-19T05:38:12.843Z,1013.11
2023-05-19T05:39:12.832Z,1013.15
2023-05-19T05:40:13.940Z,1013.16
2023-05-19T05:41:12.800Z,1013.14
2023-05-19T05:42:12.835Z,1013.17
2023-05-19T05:43:12.772Z,1013.18
2023-05-19T05:44:12.818Z,1013.18
2023-05-19T05:45:12.749Z,1013.12
2023-05-19T05:46:12.883Z,1013.13
2023-05-19T05:47:12.773Z,1013.14
2023-05-19T05:48:12.818Z,1013.10
2023-05-19T05:49:12.709Z,1013.10
2023-05-19T05:50:12.746Z,1013.11
2023-05-19T05:51:12.847Z,1013.03
2023-05-19T05:52:12.741Z,1013.03
2023-05-19T05:53:12.692Z,1013.06
2023-05-19T05:54:12.670Z,1013.08
2023-05-19T05:55:12.639Z,1013.07
2023-05-19T05:56:12.703Z,1012.98
2023-05-19T05:57:12.632Z,1013.02
2023-05-19T05:58:12.610Z,1013.02
2023-05-19T05:59:12.597Z,1013.02
2023-05-19T06:00:12.590Z,1013.05
2023-05-19T06:01:12.686Z,1013.00
2023-05-19T06:02:12.576Z,1013.07
2023-05-19T06:03:12.627Z,1013.06
2023-05-19T06:04:12.587Z,1013.02
2023-05-19T06:05:15.319Z,1013.05
2023-05-19T06:06:12.535Z,1012.99
2023-05-19T06:07:12.608Z,1013.03
2023-05-19T06:08:12.504Z,1013.08
2023-05-19T06:09:12.469Z,1013.03
2023-05-19T06:10:12.507Z,1013.01
2023-05-19T06:11:12.451Z,1013.05
2023-05-19T06:12:12.487Z,1013.01
2023-05-19T06:13:12.490Z,1013.02
2023-05-19T06:14:12.477Z,1013.00
2023-05-19T06:15:12.447Z,1012.99
2023-05-19T06:16:12.567Z,1012.98
2023-05-19T06:17:14.127Z,1013.02
2023-05-19T06:18:12.444Z,1012.99
2023-05-19T06:19:12.371Z,1013.01
2023-05-19T06:20:12.386Z,1012.95
2023-05-19T06:21:12.330Z,1013.00
2023-05-19T06:22:12.378Z,1013.02
2023-05-19T06:23:12.321Z,1013.01
2023-05-19T06:24:12.400Z,1012.97
2023-05-19T06:25:12.316Z,1012.99
2023-05-19T06:26:12.342Z,1012.97
2023-05-19T06:27:12.290Z,1013.00
2023-05-19T06:28:12.296Z,1013.04
2023-05-19T06:29:12.260Z,1013.00
2023-05-19T06:30:12.244Z,1013.05
2023-05-19T06:31:12.283Z,1013.01
2023-05-19T06:32:12.276Z,1013.02
2023-05-19T06:33:12.192Z,1012.98
2023-05-19T06:34:12.217Z,1012.98
2023-05-19T06:35:12.164Z,1012.93
2023-05-19T06:36:12.195Z,1012.93
2023-05-19T06:37:12.169Z,1012.92
2023-05-19T06:38:12.166Z,1012.88
2023-05-19T06:39:12.156Z,1012.87
2023-05-19T06:40:12.125Z,1012.84
2023-05-19T06:41:12.118Z,1012.86
2023-05-19T06:42:12.121Z,1012.87
2023-05-19T06:43:12.082Z,1012.83
2023-05-19T06:44:12.078Z,1012.87
2023-05-19T06:45:12.057Z,1012.91
2023-05-19T06:46:12.210Z,1012.90
2023-05-19T06:47:12.129Z,1012.96
2023-05-19T06:48:12.056Z,1012.87
2023-05-19T06:49:12.046Z,1012.93
2023-05-19T06:50:12.017Z,1012.93
2023-05-19T06:51:12.112Z,1012.95
2023-05-19T06:52:11.997Z,1012.95
2023-05-19T06:53:11.985Z,1012.91
2023-05-19T06:54:11.958Z,1012.93
2023-05-19T06:55:11.968Z,1012.88
2023-05-19T06:56:11.969Z,1012.85
2023-05-19T06:57:11.939Z,1012.86
2023-05-19T06:58:11.925Z,1012.90
2023-05-19T06:59:11.889Z,1012.85
2023-05-19T07:00:12.118Z,1012.88
2023-05-19T07:01:11.897Z,1012.90
2023-05-19T07:02:13.630Z,1012.88
2023-05-19T07:03:11.906Z,1012.91
2023-05-19T07:04:11.873Z,1012.90
2023-05-19T07:05:11.850Z,1012.88
2023-05-19T07:06:11.848Z,1012.82
2023-05-19T07:07:11.806Z,1012.82
2023-05-19T07:08:11.820Z,1012.88
2023-05-19T07:09:11.798Z,1012.89
2023-05-19T07:10:13.475Z,1012.88
2023-05-19T07:11:11.777Z,1012.84
2023-05-19T07:12:11.752Z,1012.84
2023-05-19T07:13:11.735Z,1012.85
2023-05-19T07:14:11.761Z,1012.83
2023-05-19T07:15:11.711Z,1012.89
2023-05-19T07:16:11.782Z,1012.87
2023-05-19T07:17:11.708Z,1012.89
2023-05-19T07:18:11.737Z,1012.88
2023-05-19T07:19:11.711Z,1012.90
2023-05-19T07:20:11.705Z,1012.85
2023-05-19T07:21:11.646Z,1012.83
2023-05-19T07:22:11.639Z,1012.89
2023-05-19T07:23:11.611Z,1012.85
2023-05-19T07:24:11.614Z,1012.85
2023-05-19T07:25:11.610Z,1012.80
2023-05-19T07:26:11.714Z,1012.77
2023-05-19T07:27:11.594Z,1012.79
2023-05-19T07:28:11.591Z,1012.79
2023-05-19T07:29:11.583Z,1012.80
2023-05-19T07:30:11.576Z,1012.74
2023-05-19T07:31:11.536Z,1012.77
2023-05-19T07:32:11.626Z,1012.74
2023-05-19T07:33:11.539Z,1012.75
2023-05-19T07:34:11.524Z,1012.71
2023-05-19T07:35:11.504Z,1012.76
2023-05-19T07:36:11.496Z,1012.73
2023-05-19T07:37:11.471Z,1012.77
2023-05-19T07:38:11.448Z,1012.81
2023-05-19T07:39:11.488Z,1012.83
2023-05-19T07:40:11.425Z,1012.79
2023-05-19T07:41:11.456Z,1012.81
2023-05-19T07:42:11.423Z,1012.80
2023-05-19T07:43:11.404Z,1012.83
2023-05-19T07:44:11.400Z,1012.79
2023-05-19T07:45:11.361Z,1012.79
2023-05-19T07:46:11.484Z,1012.72
2023-05-19T07:47:11.361Z,1012.77
2023-05-19T07:48:11.355Z,1012.74
2023-05-19T07:49:11.297Z,1012.81
2023-05-19T07:50:11.323Z,1012.78
2023-05-19T07:51:11.333Z,1012.79
2023-05-19T07:52:11.271Z,1012.78
2023-05-19T07:53:11.253Z,1012.79
2023-05-19T07:54:11.294Z,1012.79
2023-05-19T07:55:11.251Z,1012.76
2023-05-19T07:56:11.279Z,1012.76
2023-05-19T07:57:11.232Z,1012.77
2023-05-19T07:58:11.249Z,1012.77
2023-05-19T07:59:11.183Z,1012.75
2023-05-19T08:00:11.206Z,1012.82
2023-05-19T08:01:11.219Z,1012.74
2023-05-19T08:02:11.191Z,1012.79
2023-05-19T08:03:11.330Z,1012.72
2023-05-19T08:04:12.685Z,1012.77
2023-05-19T08:05:11.114Z,1012.71
2023-05-19T08:06:11.187Z,1012.68
2023-05-19T08:07:11.108Z,1012.63
2023-05-19T08:08:11.109Z,1012.68
2023-05-19T08:09:11.095Z,1012.64
2023-05-19T08:10:11.073Z,1012.68
2023-05-19T08:11:11.077Z,1012.65
2023-05-19T08:12:11.034Z,1012.67
2023-05-19T08:13:11.103Z,1012.64
2023-05-19T08:14:11.023Z,1012.61
2023-05-19T08:15:10.986Z,1012.67
2023-05-19T08:16:11.067Z,1012.63
2023-05-19T08:17:10.984Z,1012.61
2023-05-19T08:18:11.054Z,1012.60
2023-05-19T08:19:11.048Z,1012.61
2023-05-19T08:20:10.974Z,1012.63
2023-05-19T08:22:27.118Z,1012.64
2023-05-19T08:23:22.001Z,1012.57
2023-05-19T08:24:21.961Z,1012.55
2023-05-19T08:25:21.932Z,1012.55
2023-05-19T08:26:21.951Z,1012.52
2023-05-19T08:27:21.934Z,1012.52
2023-05-19T08:28:21.912Z,1012.55
2023-05-19T08:29:21.920Z,1012.56
2023-05-19T08:30:21.908Z,1012.56
2023-05-19T08:31:21.911Z,1012.54
2023-05-19T08:32:21.965Z,1012.55
2023-05-19T08:35:45.483Z,1012.56
2023-05-19T08:36:43.884Z,1012.45
2023-05-19T08:37:43.878Z,1012.48
2023-05-19T08:38:43.829Z,1012.50
2023-05-19T08:39:43.857Z,1012.42
2023-05-19T08:40:43.836Z,1012.44
2023-05-19T08:41:43.823Z,1012.43
2023-05-19T08:42:43.810Z,1012.42
2023-05-19T08:43:43.813Z,1012.42
2023-05-19T08:44:43.761Z,1012.44
2023-05-19T08:45:43.781Z,1012.42
2023-05-19T08:46:43.824Z,1012.38
2023-05-19T08:47:43.875Z,1012.40
2023-05-19T08:48:43.729Z,1012.37
2023-05-19T08:49:43.791Z,1012.31
2023-05-19T08:50:43.725Z,1012.31
2023-05-19T08:51:43.685Z,1012.31
2023-05-19T08:52:44.572Z,1012.33
2023-05-19T08:53:43.722Z,1012.29
2023-05-19T08:54:43.626Z,1012.31
2023-05-19T08:55:43.684Z,1012.36
2023-05-19T08:56:43.652Z,1012.26
2023-05-19T08:57:43.615Z,1012.26
2023-05-19T08:58:43.710Z,1012.25
2023-05-19T08:59:43.631Z,1012.17
2023-05-19T09:00:43.649Z,1012.27
2023-05-19T09:01:43.572Z,1012.25
2023-05-19T09:02:50.692Z,1012.26
2023-05-19T09:03:44.761Z,1012.25
2023-05-19T09:04:43.597Z,1012.22
2023-05-19T09:05:43.605Z,1012.19
2023-05-19T09:06:43.534Z,1012.21
2023-05-19T09:07:43.500Z,1012.15
2023-05-19T09:08:43.489Z,1012.14
2023-05-19T09:09:43.527Z,1012.10
2023-05-19T09:10:43.472Z,1012.04
2023-05-19T09:11:43.478Z,1012.10
2023-05-19T09:12:43.489Z,1012.10
2023-05-19T09:13:43.453Z,1012.04
2023-05-19T09:14:43.421Z,1012.13
2023-05-19T09:15:43.417Z,1012.10
2023-05-19T09:16:43.448Z,1012.12
2023-05-19T09:17:43.421Z,1012.09
2023-05-19T09:18:43.414Z,1012.09
2023-05-19T09:19:43.355Z,1012.06
2023-05-19T09:20:43.353Z,1012.11
2023-05-19T09:21:44.584Z,1012.06
2023-05-19T09:22:43.330Z,1012.10
2023-05-19T09:23:43.333Z,1012.12
2023-05-19T09:24:43.280Z,1012.09
2023-05-19T09:25:43.313Z,1012.06
2023-05-19T09:26:43.309Z,1012.02
2023-05-19T09:27:43.314Z,1012.05
2023-05-19T09:28:43.235Z,1011.97
2023-05-19T09:29:43.263Z,1011.99
2023-05-19T09:30:43.207Z,1012.01
2023-05-19T09:31:43.299Z,1011.98
2023-05-19T09:32:43.694Z,1012.03
2023-05-19T09:33:45.925Z,1012.02
2023-05-19T09:34:43.169Z,1011.99
2023-05-19T09:35:43.206Z,1012.01
2023-05-19T09:36:43.156Z,1012.00
2023-05-19T09:37:43.173Z,1012.00
2023-05-19T09:38:43.126Z,1011.96
2023-05-19T09:39:43.113Z,1011.90
2023-05-19T09:40:43.105Z,1011.98
2023-05-19T09:41:43.115Z,1011.99
2023-05-19T09:42:43.099Z,1011.94
2023-05-19T09:43:43.079Z,1011.89
2023-05-19T09:44:43.072Z,1011.92
2023-05-19T09:45:43.067Z,1011.88
2023-05-19T09:46:43.073Z,1011.83
2023-05-19T09:47:43.098Z,1011.81
2023-05-19T09:48:43.021Z,1011.84
2023-05-19T09:49:43.019Z,1011.83
2023-05-19T09:50:42.968Z,1011.81
2023-05-19T09:51:43.019Z,1011.81
2023-05-19T09:52:42.970Z,1011.89
2023-05-19T09:53:43.028Z,1011.88
2023-05-19T09:54:42.951Z,1011.86
2023-05-19T09:55:42.957Z,1011.91
2023-05-19T09:56:43.137Z,1011.81
2023-05-19T09:57:42.908Z,1011.82
2023-05-19T09:58:42.904Z,1011.80
2023-05-19T09:59:42.927Z,1011.82
2023-05-19T10:00:42.852Z,1011.75
2023-05-19T10:01:42.873Z,1011.76
2023-05-19T10:02:42.943Z,1011.77
2023-05-19T10:03:42.871Z,1011.81
2023-05-19T10:04:42.808Z,1011.73
2023-05-19T10:05:42.844Z,1011.69
2023-05-19T10:06:42.804Z,1011.72
2023-05-19T10:07:42.846Z,1011.65
2023-05-19T10:08:42.780Z,1011.61
2023-05-19T10:09:42.763Z,1011.70
2023-05-19T10:10:42.767Z,1011.74
2023-05-19T10:11:42.790Z,1011.71
2023-05-19T10:12:42.717Z,1011.68
2023-05-19T10:13:42.708Z,1011.70
2023-05-19T10:14:42.710Z,1011.68
2023-05-19T10:15:57.257Z,1011.71
2023-05-19T10:16:43.723Z,1011.71
2023-05-19T10:17:42.693Z,1011.70
2023-05-19T10:18:42.726Z,1011.67
2023-05-19T10:19:42.640Z,1011.68
2023-05-19T10:20:42.615Z,1011.69
2023-05-19T10:21:42.665Z,1011.62
2023-05-19T10:22:42.609Z,1011.63
2023-05-19T10:23:42.592Z,1011.65
2023-05-19T10:24:42.691Z,1011.63
2023-05-19T10:25:42.576Z,1011.65
2023-05-19T10:26:42.553Z,1011.64
2023-05-19T10:27:42.548Z,1011.63
2023-05-19T10:28:42.590Z,1011.67
2023-05-19T10:29:42.529Z,1011.69
2023-05-19T10:30:42.512Z,1011.66
2023-05-19T10:31:42.578Z,1011.65
2023-05-19T10:32:42.554Z,1011.70
2023-05-19T10:33:42.493Z,1011.62
2023-05-19T10:34:42.480Z,1011.58
2023-05-19T10:35:42.912Z,1011.61
2023-05-19T10:36:42.465Z,1011.57
2023-05-19T10:37:42.428Z,1011.63
2023-05-19T10:38:42.447Z,1011.64
2023-05-19T10:39:42.422Z,1011.62
2023-05-19T10:40:42.408Z,1011.65
2023-05-19T10:41:42.406Z,1011.64
2023-05-19T10:42:42.366Z,1011.58
2023-05-19T10:43:42.435Z,1011.62
2023-05-19T10:44:42.340Z,1011.54
2023-05-19T10:45:45.038Z,1011.59
2023-05-19T10:46:42.349Z,1011.52
2023-05-19T10:47:42.333Z,1011.52
2023-05-19T10:48:42.389Z,1011.56
2023-05-19T10:49:42.301Z,1011.48
2023-05-19T10:50:42.303Z,1011.47
2023-05-19T10:51:42.274Z,1011.48
2023-05-19T10:52:42.244Z,1011.46
2023-05-19T10:53:42.382Z,1011.42
2023-05-19T10:54:42.217Z,1011.43
2023-05-19T10:55:42.251Z,1011.54
2023-05-19T10:56:42.281Z,1011.53
2023-05-19T10:57:42.241Z,1011.45
2023-05-19T10:58:42.294Z,1011.50
2023-05-19T10:59:42.203Z,1011.54
2023-05-19T11:00:42.157Z,1011.53
2023-05-19T11:01:42.184Z,1011.52
2023-05-19T11:02:42.296Z,1011.51
2023-05-19T11:03:43.022Z,1011.48
2023-05-19T11:04:42.137Z,1011.51
2023-05-19T11:05:42.135Z,1011.42
2023-05-19T11:06:42.122Z,1011.41
2023-05-19T11:07:42.110Z,1011.46
2023-05-19T11:08:42.089Z,1011.38
2023-05-19T11:09:42.184Z,1011.43
2023-05-19T11:10:42.049Z,1011.43
2023-05-19T11:11:42.045Z,1011.44
2023-05-19T11:12:42.051Z,1011.48
2023-05-19T11:13:42.045Z,1011.51
2023-05-19T11:14:42.016Z,1011.51
2023-05-19T11:15:42.019Z,1011.49
2023-05-19T11:16:42.043Z,1011.44
2023-05-19T11:17:42.000Z,1011.46
2023-05-19T11:18:42.010Z,1011.39
2023-05-19T11:19:41.953Z,1011.42
2023-05-19T11:20:41.993Z,1011.44
2023-05-19T11:21:41.962Z,1011.42
2023-05-19T11:22:42.021Z,1011.40
2023-05-19T11:23:41.992Z,1011.44
2023-05-19T11:24:41.906Z,1011.42
2023-05-19T11:25:41.917Z,1011.40
2023-05-19T11:26:41.877Z,1011.41
2023-05-19T11:27:41.849Z,1011.35
2023-05-19T11:28:41.862Z,1011.28
2023-05-19T11:29:41.853Z,1011.34
2023-05-19T11:30:41.831Z,1011.27
2023-05-19T11:31:41.850Z,1011.39
2023-05-19T11:32:41.840Z,1011.34
2023-05-19T11:33:41.839Z,1011.36
2023-05-19T11:34:41.792Z,1011.35
2023-05-19T11:35:41.786Z,1011.28
2023-05-19T11:36:41.766Z,1011.31
2023-05-19T11:37:41.785Z,1011.23
2023-05-19T11:38:41.706Z,1011.19
2023-05-19T11:39:41.740Z,1011.20
2023-05-19T11:40:41.805Z,1011.21
2023-05-19T11:41:41.697Z,1011.18
2023-05-19T11:42:41.692Z,1011.19
2023-05-19T11:43:41.685Z,1011.20
2023-05-19T11:44:41.638Z,1011.20
2023-05-19T11:45:41.670Z,1011.21
2023-05-19T11:46:41.922Z,1011.25
2023-05-19T11:47:56.354Z,1011.21
2023-05-19T11:48:42.675Z,1011.28
2023-05-19T11:49:41.595Z,1011.24
2023-05-19T11:50:41.569Z,1011.23
2023-05-19T11:51:41.560Z,1011.19
2023-05-19T11:52:41.831Z,1011.19
2023-05-19T11:53:41.555Z,1011.20
2023-05-19T11:54:41.518Z,1011.20
2023-05-19T11:55:41.551Z,1011.23
2023-05-19T11:56:41.548Z,1011.27
2023-05-19T11:57:44.716Z,1011.26
2023-05-19T11:58:42.496Z,1011.24
2023-05-19T11:59:41.499Z,1011.23
2023-05-19T12:00:41.557Z,1011.22
2023-05-19T12:01:41.471Z,1011.21
2023-05-19T12:02:41.561Z,1011.21
2023-05-19T12:03:41.701Z,1011.14
2023-05-19T12:04:41.445Z,1011.18
2023-05-19T12:05:43.561Z,1011.11
2023-05-19T12:06:41.564Z,1011.10
2023-05-19T12:07:41.393Z,1011.09
2023-05-19T12:08:41.378Z,1011.11